sensor_id;sensor_type;location;lat;lon;timestamp;P1;durP1;ratioP1;P2;durP2;ratioP2
10230;SDS011;62604;49.432;8.680;2024-02-21T01:20:16;9.83;;;4.23;;
10230;SDS011;62604;49.432;8.680;2024-02-21T01:22:49;8.57;;;4.63;;
10230;SDS011;62604;49.432;8.680;2024-02-21T06:17:22;10.53;;;4.37;;
10230;SDS011;62604;49.432;8.680;2024-02-21T06:19:49;7.40;;;4.27;;
10230;SDS011;62604;49.432;8.680;2024-02-21T06:22:19;7.20;;;3.87;;
10230;SDS011;62604;49.432;8.680;2024-02-21T06:26:04;7.33;;;3.77;;
10230;SDS011;62604;49.432;8.680;2024-02-21T06:27:37;4.60;;;3.43;;
10230;SDS011;62604;49.432;8.680;2024-02-21T06:30:23;7.27;;;3.97;;
10230;SDS011;62604;49.432;8.680;2024-02-21T06:32:54;8.33;;;3.93;;
10230;SDS011;62604;49.432;8.680;2024-02-21T06:38:42;6.87;;;3.97;;
10230;SDS011;62604;49.432;8.680;2024-02-21T06:41:18;6.40;;;3.77;;
10230;SDS011;62604;49.432;8.680;2024-02-21T06:44:11;7.27;;;4.53;;
10230;SDS011;62604;49.432;8.680;2024-02-21T06:50:07;7.93;;;4.13;;
10230;SDS011;62604;49.432;8.680;2024-02-21T06:58:20;5.23;;;3.30;;
10230;SDS011;62604;49.432;8.680;2024-02-21T07:01:27;5.73;;;3.77;;
10230;SDS011;62604;49.432;8.680;2024-02-21T07:03:34;9.20;;;3.83;;
10230;SDS011;62604;49.432;8.680;2024-02-21T07:06:03;6.33;;;3.60;;
10230;SDS011;62604;49.432;8.680;2024-02-21T07:08:30;14.07;;;3.93;;
10230;SDS011;62604;49.432;8.680;2024-02-21T07:11:17;7.10;;;3.73;;
10230;SDS011;62604;49.432;8.680;2024-02-21T07:13:47;8.43;;;3.80;;
10230;SDS011;62604;49.432;8.680;2024-02-21T07:16:14;10.27;;;4.17;;
10230;SDS011;62604;49.432;8.680;2024-02-21T07:18:44;8.33;;;4.10;;
10230;SDS011;62604;49.432;8.680;2024-02-21T07:21:13;7.67;;;3.90;;
10230;SDS011;62604;49.432;8.680;2024-02-21T07:23:40;4.90;;;4.03;;
10230;SDS011;62604;49.432;8.680;2024-02-21T07:26:08;9.63;;;3.80;;
10230;SDS011;62604;49.432;8.680;2024-02-21T07:28:35;6.90;;;3.80;;
10230;SDS011;62604;49.432;8.680;2024-02-21T07:31:11;9.73;;;4.97;;
10230;SDS011;62604;49.432;8.680;2024-02-21T07:33:41;7.20;;;4.43;;
10230;SDS011;62604;49.432;8.680;2024-02-21T07:36:12;13.93;;;4.17;;
10230;SDS011;62604;49.432;8.680;2024-02-21T07:38:41;7.73;;;4.10;;
10230;SDS011;62604;49.432;8.680;2024-02-21T07:41:12;9.07;;;4.30;;
10230;SDS011;62604;49.432;8.680;2024-02-21T07:43:39;6.37;;;3.73;;
10230;SDS011;62604;49.432;8.680;2024-02-21T07:46:09;5.47;;;3.60;;
10230;SDS011;62604;49.432;8.680;2024-02-21T07:48:39;6.73;;;3.80;;
10230;SDS011;62604;49.432;8.680;2024-02-21T07:51:06;5.80;;;3.80;;
10230;SDS011;62604;49.432;8.680;2024-02-21T07:53:34;5.33;;;4.10;;
10230;SDS011;62604;49.432;8.680;2024-02-21T07:56:09;5.53;;;3.77;;
10230;SDS011;62604;49.432;8.680;2024-02-21T07:58:36;6.27;;;4.37;;
10230;SDS011;62604;49.432;8.680;2024-02-21T08:01:04;7.17;;;3.90;;
10230;SDS011;62604;49.432;8.680;2024-02-21T08:03:31;9.80;;;3.93;;
10230;SDS011;62604;49.432;8.680;2024-02-21T08:05:59;6.07;;;3.80;;
10230;SDS011;62604;49.432;8.680;2024-02-21T08:08:30;5.17;;;4.27;;
10230;SDS011;62604;49.432;8.680;2024-02-21T08:11:01;5.80;;;4.07;;
10230;SDS011;62604;49.432;8.680;2024-02-21T08:13:34;5.67;;;4.37;;
10230;SDS011;62604;49.432;8.680;2024-02-21T08:16:04;9.80;;;4.27;;
10230;SDS011;62604;49.432;8.680;2024-02-21T08:18:31;3.80;;;3.50;;
10230;SDS011;62604;49.432;8.680;2024-02-21T08:21:03;6.43;;;3.70;;
10230;SDS011;62604;49.432;8.680;2024-02-21T08:23:30;4.47;;;3.53;;
10230;SDS011;62604;49.432;8.680;2024-02-21T08:26:02;6.03;;;3.57;;
10230;SDS011;62604;49.432;8.680;2024-02-21T08:28:29;5.63;;;3.90;;
10230;SDS011;62604;49.432;8.680;2024-02-21T08:30:56;4.63;;;4.17;;
10230;SDS011;62604;49.432;8.680;2024-02-21T08:33:27;7.87;;;4.10;;
10230;SDS011;62604;49.432;8.680;2024-02-21T08:35:55;8.17;;;4.17;;
10230;SDS011;62604;49.432;8.680;2024-02-21T08:38:24;5.63;;;3.57;;
10230;SDS011;62604;49.432;8.680;2024-02-21T08:40:51;6.33;;;4.20;;
10230;SDS011;62604;49.432;8.680;2024-02-21T08:43:20;7.73;;;3.70;;
10230;SDS011;62604;49.432;8.680;2024-02-21T08:45:47;6.83;;;3.83;;
10230;SDS011;62604;49.432;8.680;2024-02-21T08:48:18;4.47;;;3.77;;
10230;SDS011;62604;49.432;8.680;2024-02-21T08:50:45;9.03;;;3.90;;
10230;SDS011;62604;49.432;8.680;2024-02-21T08:53:15;9.20;;;4.27;;
10230;SDS011;62604;49.432;8.680;2024-02-21T08:55:43;10.40;;;3.50;;
10230;SDS011;62604;49.432;8.680;2024-02-21T08:58:13;4.60;;;3.87;;
10230;SDS011;62604;49.432;8.680;2024-02-21T09:00:46;8.23;;;3.90;;
10230;SDS011;62604;49.432;8.680;2024-02-21T09:03:29;6.00;;;3.73;;
10230;SDS011;62604;49.432;8.680;2024-02-21T09:06:44;6.77;;;4.00;;
10230;SDS011;62604;49.432;8.680;2024-02-21T09:09:18;7.73;;;4.33;;
10230;SDS011;62604;49.432;8.680;2024-02-21T09:11:45;6.13;;;3.60;;
10230;SDS011;62604;49.432;8.680;2024-02-21T09:14:12;4.77;;;3.50;;
10230;SDS011;62604;49.432;8.680;2024-02-21T09:16:42;6.47;;;3.57;;
10230;SDS011;62604;49.432;8.680;2024-02-21T09:19:10;6.10;;;3.97;;
10230;SDS011;62604;49.432;8.680;2024-02-21T09:21:37;6.03;;;3.20;;
10230;SDS011;62604;49.432;8.680;2024-02-21T09:24:05;5.77;;;3.80;;
10230;SDS011;62604;49.432;8.680;2024-02-21T09:26:32;5.57;;;3.47;;
10230;SDS011;62604;49.432;8.680;2024-02-21T09:28:59;9.07;;;4.30;;
10230;SDS011;62604;49.432;8.680;2024-02-21T09:31:29;5.33;;;3.53;;
10230;SDS011;62604;49.432;8.680;2024-02-21T09:34:05;6.67;;;4.07;;
10230;SDS011;62604;49.432;8.680;2024-02-21T09:36:32;4.43;;;3.00;;
10230;SDS011;62604;49.432;8.680;2024-02-21T09:38:59;6.27;;;3.90;;
10230;SDS011;62604;49.432;8.680;2024-02-21T09:41:26;6.30;;;3.93;;
10230;SDS011;62604;49.432;8.680;2024-02-21T09:43:57;6.60;;;3.90;;
10230;SDS011;62604;49.432;8.680;2024-02-21T09:46:30;6.47;;;3.90;;
10230;SDS011;62604;49.432;8.680;2024-02-21T09:49:11;7.47;;;4.10;;
10230;SDS011;62604;49.432;8.680;2024-02-21T09:51:46;6.03;;;4.00;;
10230;SDS011;62604;49.432;8.680;2024-02-21T09:54:18;6.77;;;3.83;;
10230;SDS011;62604;49.432;8.680;2024-02-21T09:56:46;10.90;;;3.43;;
10230;SDS011;62604;49.432;8.680;2024-02-21T09:59:13;7.70;;;3.70;;
10230;SDS011;62604;49.432;8.680;2024-02-21T10:01:42;5.70;;;3.60;;
10230;SDS011;62604;49.432;8.680;2024-02-21T10:04:10;7.20;;;3.50;;
10230;SDS011;62604;49.432;8.680;2024-02-21T10:06:37;5.13;;;3.20;;
10230;SDS011;62604;49.432;8.680;2024-02-21T10:09:05;4.47;;;3.23;;
10230;SDS011;62604;49.432;8.680;2024-02-21T10:11:33;7.30;;;4.10;;
10230;SDS011;62604;49.432;8.680;2024-02-21T10:14:04;5.50;;;3.42;;
10230;SDS011;62604;49.432;8.680;2024-02-21T10:16:31;8.20;;;4.15;;
10230;SDS011;62604;49.432;8.680;2024-02-21T10:18:59;4.40;;;3.38;;
10230;SDS011;62604;49.432;8.680;2024-02-21T10:21:29;5.55;;;3.45;;
10230;SDS011;62604;49.432;8.680;2024-02-21T10:23:57;4.93;;;3.67;;
10230;SDS011;62604;49.432;8.680;2024-02-21T10:26:24;5.68;;;3.67;;
10230;SDS011;62604;49.432;8.680;2024-02-21T10:28:51;9.05;;;3.45;;
10230;SDS011;62604;49.432;8.680;2024-02-21T10:31:22;4.78;;;3.35;;
10230;SDS011;62604;49.432;8.680;2024-02-21T10:33:54;7.10;;;3.53;;
10230;SDS011;62604;49.432;8.680;2024-02-21T10:36:22;4.80;;;3.08;;
10230;SDS011;62604;49.432;8.680;2024-02-21T10:38:52;3.92;;;3.45;;
10230;SDS011;62604;49.432;8.680;2024-02-21T10:41:19;3.40;;;3.10;;
10230;SDS011;62604;49.432;8.680;2024-02-21T10:43:49;3.70;;;3.40;;
10230;SDS011;62604;49.432;8.680;2024-02-21T10:46:19;6.38;;;3.28;;
10230;SDS011;62604;49.432;8.680;2024-02-21T10:48:47;3.33;;;3.00;;
10230;SDS011;62604;49.432;8.680;2024-02-21T10:51:18;4.38;;;3.22;;
10230;SDS011;62604;49.432;8.680;2024-02-21T10:53:50;3.78;;;3.33;;
10230;SDS011;62604;49.432;8.680;2024-02-21T10:56:26;6.20;;;3.33;;
10230;SDS011;62604;49.432;8.680;2024-02-21T10:58:56;5.70;;;3.25;;
10230;SDS011;62604;49.432;8.680;2024-02-21T11:01:24;5.20;;;3.38;;
10230;SDS011;62604;49.432;8.680;2024-02-21T11:03:54;5.40;;;3.30;;
10230;SDS011;62604;49.432;8.680;2024-02-21T11:06:23;9.88;;;3.47;;
10230;SDS011;62604;49.432;8.680;2024-02-21T11:09:01;3.78;;;2.75;;
10230;SDS011;62604;49.432;8.680;2024-02-21T11:11:29;6.03;;;2.97;;
10230;SDS011;62604;49.432;8.680;2024-02-21T11:14:06;5.45;;;2.85;;
10230;SDS011;62604;49.432;8.680;2024-02-21T11:16:37;13.15;;;3.38;;
10230;SDS011;62604;49.432;8.680;2024-02-21T11:19:06;4.00;;;3.10;;
10230;SDS011;62604;49.432;8.680;2024-02-21T11:21:34;6.03;;;2.70;;
10230;SDS011;62604;49.432;8.680;2024-02-21T11:24:04;4.88;;;3.03;;
10230;SDS011;62604;49.432;8.680;2024-02-21T11:26:32;3.35;;;2.75;;
10230;SDS011;62604;49.432;8.680;2024-02-21T11:28:59;5.47;;;3.20;;
10230;SDS011;62604;49.432;8.680;2024-02-21T11:31:37;7.47;;;3.28;;
10230;SDS011;62604;49.432;8.680;2024-02-21T11:34:08;3.25;;;2.90;;
10230;SDS011;62604;49.432;8.680;2024-02-21T11:36:36;5.78;;;2.90;;
10230;SDS011;62604;49.432;8.680;2024-02-21T11:39:13;3.08;;;2.50;;
10230;SDS011;62604;49.432;8.680;2024-02-21T11:41:46;7.22;;;3.10;;
10230;SDS011;62604;49.432;8.680;2024-02-21T11:44:14;5.85;;;2.60;;
10230;SDS011;62604;49.432;8.680;2024-02-21T11:46:41;3.22;;;2.55;;
10230;SDS011;62604;49.432;8.680;2024-02-21T11:49:09;3.95;;;2.58;;
10230;SDS011;62604;49.432;8.680;2024-02-21T11:51:36;6.53;;;3.03;;
10230;SDS011;62604;49.432;8.680;2024-02-21T11:54:03;8.60;;;3.08;;
10230;SDS011;62604;49.432;8.680;2024-02-21T11:56:34;4.15;;;2.60;;
10230;SDS011;62604;49.432;8.680;2024-02-21T11:59:01;8.65;;;3.08;;
10230;SDS011;62604;49.432;8.680;2024-02-21T12:01:28;5.10;;;2.90;;
10230;SDS011;62604;49.432;8.680;2024-02-21T12:03:55;4.45;;;2.72;;
10230;SDS011;62604;49.432;8.680;2024-02-21T12:06:23;4.63;;;2.60;;
10230;SDS011;62604;49.432;8.680;2024-02-21T12:08:50;3.38;;;2.90;;
10230;SDS011;62604;49.432;8.680;2024-02-21T12:11:21;6.95;;;3.10;;
10230;SDS011;62604;49.432;8.680;2024-02-21T12:13:59;5.18;;;2.95;;
10230;SDS011;62604;49.432;8.680;2024-02-21T12:16:28;5.38;;;2.47;;
10230;SDS011;62604;49.432;8.680;2024-02-21T12:18:55;4.38;;;3.00;;
10230;SDS011;62604;49.432;8.680;2024-02-21T12:21:25;7.50;;;3.00;;
10230;SDS011;62604;49.432;8.680;2024-02-21T12:23:54;3.25;;;2.75;;
10230;SDS011;62604;49.432;8.680;2024-02-21T12:26:21;5.72;;;2.65;;
10230;SDS011;62604;49.432;8.680;2024-02-21T12:28:48;4.15;;;2.70;;
10230;SDS011;62604;49.432;8.680;2024-02-21T12:31:17;4.00;;;2.72;;
10230;SDS011;62604;49.432;8.680;2024-02-21T12:33:44;3.53;;;2.72;;
10230;SDS011;62604;49.432;8.680;2024-02-21T12:36:11;4.82;;;2.88;;
10230;SDS011;62604;49.432;8.680;2024-02-21T12:38:38;3.40;;;2.60;;
10230;SDS011;62604;49.432;8.680;2024-02-21T12:41:05;4.35;;;2.90;;
10230;SDS011;62604;49.432;8.680;2024-02-21T12:43:32;3.28;;;2.50;;
10230;SDS011;62604;49.432;8.680;2024-02-21T12:46:01;6.28;;;3.05;;
10230;SDS011;62604;49.432;8.680;2024-02-21T12:48:29;2.60;;;2.40;;
10230;SDS011;62604;49.432;8.680;2024-02-21T12:50:57;3.03;;;2.58;;
10230;SDS011;62604;49.432;8.680;2024-02-21T12:53:24;4.90;;;2.90;;
10230;SDS011;62604;49.432;8.680;2024-02-21T12:55:51;3.00;;;2.70;;
10230;SDS011;62604;49.432;8.680;2024-02-21T12:58:19;3.28;;;2.60;;
10230;SDS011;62604;49.432;8.680;2024-02-21T13:00:46;2.50;;;2.30;;
10230;SDS011;62604;49.432;8.680;2024-02-21T13:03:14;3.47;;;2.63;;
10230;SDS011;62604;49.432;8.680;2024-02-21T13:05:42;3.47;;;2.70;;
10230;SDS011;62604;49.432;8.680;2024-02-21T13:08:09;4.88;;;2.60;;
10230;SDS011;62604;49.432;8.680;2024-02-21T13:10:37;4.57;;;2.80;;
10230;SDS011;62604;49.432;8.680;2024-02-21T13:13:04;2.90;;;2.60;;
10230;SDS011;62604;49.432;8.680;2024-02-21T13:15:31;5.90;;;3.00;;
10230;SDS011;62604;49.432;8.680;2024-02-21T13:17:58;3.45;;;2.33;;
10230;SDS011;62604;49.432;8.680;2024-02-21T13:20:25;3.05;;;2.38;;
10230;SDS011;62604;49.432;8.680;2024-02-21T13:22:55;3.67;;;2.60;;
10230;SDS011;62604;49.432;8.680;2024-02-21T13:25:22;3.95;;;2.50;;
10230;SDS011;62604;49.432;8.680;2024-02-21T13:27:49;5.75;;;2.42;;
10230;SDS011;62604;49.432;8.680;2024-02-21T13:30:16;5.18;;;2.85;;
10230;SDS011;62604;49.432;8.680;2024-02-21T13:32:44;6.95;;;2.70;;
10230;SDS011;62604;49.432;8.680;2024-02-21T13:35:12;7.15;;;2.97;;
10230;SDS011;62604;49.432;8.680;2024-02-21T13:37:39;4.20;;;3.15;;
10230;SDS011;62604;49.432;8.680;2024-02-21T13:40:08;3.80;;;2.90;;
10230;SDS011;62604;49.432;8.680;2024-02-21T13:42:36;3.38;;;2.65;;
10230;SDS011;62604;49.432;8.680;2024-02-21T13:45:04;5.53;;;2.83;;
10230;SDS011;62604;49.432;8.680;2024-02-21T13:47:31;5.97;;;2.55;;
10230;SDS011;62604;49.432;8.680;2024-02-21T13:49:59;3.47;;;2.78;;
10230;SDS011;62604;49.432;8.680;2024-02-21T13:52:26;6.10;;;2.70;;
10230;SDS011;62604;49.432;8.680;2024-02-21T13:54:53;7.22;;;2.90;;
10230;SDS011;62604;49.432;8.680;2024-02-21T13:57:21;2.97;;;2.50;;
10230;SDS011;62604;49.432;8.680;2024-02-21T13:59:48;10.52;;;2.65;;
10230;SDS011;62604;49.432;8.680;2024-02-21T14:02:16;4.13;;;2.30;;
10230;SDS011;62604;49.432;8.680;2024-02-21T14:04:44;3.97;;;2.72;;
10230;SDS011;62604;49.432;8.680;2024-02-21T14:07:11;3.58;;;2.50;;
10230;SDS011;62604;49.432;8.680;2024-02-21T14:09:38;3.97;;;2.95;;
10230;SDS011;62604;49.432;8.680;2024-02-21T14:12:06;3.00;;;2.42;;
10230;SDS011;62604;49.432;8.680;2024-02-21T14:14:35;4.45;;;2.50;;
10230;SDS011;62604;49.432;8.680;2024-02-21T14:17:03;5.65;;;2.90;;
10230;SDS011;62604;49.432;8.680;2024-02-21T14:19:30;2.78;;;2.42;;
10230;SDS011;62604;49.432;8.680;2024-02-21T14:21:57;2.88;;;2.50;;
10230;SDS011;62604;49.432;8.680;2024-02-21T14:24:24;4.22;;;2.60;;
10230;SDS011;62604;49.432;8.680;2024-02-21T14:26:52;3.38;;;3.08;;
10230;SDS011;62604;49.432;8.680;2024-02-21T14:29:20;2.83;;;2.53;;
10230;SDS011;62604;49.432;8.680;2024-02-21T14:31:48;3.38;;;2.58;;
10230;SDS011;62604;49.432;8.680;2024-02-21T14:34:15;5.60;;;3.05;;
10230;SDS011;62604;49.432;8.680;2024-02-21T14:36:42;7.10;;;2.60;;
10230;SDS011;62604;49.432;8.680;2024-02-21T14:39:09;6.00;;;3.38;;
10230;SDS011;62604;49.432;8.680;2024-02-21T14:41:36;3.55;;;2.58;;
10230;SDS011;62604;49.432;8.680;2024-02-21T14:44:04;3.63;;;2.47;;
10230;SDS011;62604;49.432;8.680;2024-02-21T14:46:35;3.38;;;2.53;;
10230;SDS011;62604;49.432;8.680;2024-02-21T14:49:04;3.88;;;2.20;;
10230;SDS011;62604;49.432;8.680;2024-02-21T14:51:31;7.50;;;2.63;;
10230;SDS011;62604;49.432;8.680;2024-02-21T14:53:59;2.60;;;2.40;;
10230;SDS011;62604;49.432;8.680;2024-02-21T14:56:26;2.57;;;2.33;;
10230;SDS011;62604;49.432;8.680;2024-02-21T14:58:53;2.63;;;2.23;;
10230;SDS011;62604;49.432;8.680;2024-02-21T15:01:20;3.50;;;2.50;;
10230;SDS011;62604;49.432;8.680;2024-02-21T15:03:47;2.53;;;2.33;;
10230;SDS011;62604;49.432;8.680;2024-02-21T15:06:15;4.53;;;2.40;;
10230;SDS011;62604;49.432;8.680;2024-02-21T15:08:42;5.87;;;2.43;;
10230;SDS011;62604;49.432;8.680;2024-02-21T15:11:09;5.17;;;2.17;;
10230;SDS011;62604;49.432;8.680;2024-02-21T15:13:36;3.70;;;2.30;;
10230;SDS011;62604;49.432;8.680;2024-02-21T15:16:04;2.67;;;2.43;;
10230;SDS011;62604;49.432;8.680;2024-02-21T15:18:31;3.93;;;2.50;;
10230;SDS011;62604;49.432;8.680;2024-02-21T15:21:01;3.33;;;2.80;;
10230;SDS011;62604;49.432;8.680;2024-02-21T15:23:29;6.23;;;2.43;;
10230;SDS011;62604;49.432;8.680;2024-02-21T15:25:56;4.80;;;2.53;;
10230;SDS011;62604;49.432;8.680;2024-02-21T15:28:24;2.30;;;2.10;;
10230;SDS011;62604;49.432;8.680;2024-02-21T15:30:53;3.03;;;2.33;;
10230;SDS011;62604;49.432;8.680;2024-02-21T15:33:20;3.80;;;2.50;;
10230;SDS011;62604;49.432;8.680;2024-02-21T15:35:48;4.10;;;2.27;;
10230;SDS011;62604;49.432;8.680;2024-02-21T15:38:15;3.60;;;2.37;;
10230;SDS011;62604;49.432;8.680;2024-02-21T15:40:44;2.83;;;2.40;;
10230;SDS011;62604;49.432;8.680;2024-02-21T15:43:11;4.10;;;2.20;;
10230;SDS011;62604;49.432;8.680;2024-02-21T15:45:38;4.70;;;2.70;;
10230;SDS011;62604;49.432;8.680;2024-02-21T15:48:06;5.50;;;2.53;;
10230;SDS011;62604;49.432;8.680;2024-02-21T15:50:33;2.53;;;2.33;;
10230;SDS011;62604;49.432;8.680;2024-02-21T15:53:00;4.87;;;2.50;;
10230;SDS011;62604;49.432;8.680;2024-02-21T15:55:28;5.20;;;2.77;;
10230;SDS011;62604;49.432;8.680;2024-02-21T15:57:56;4.40;;;2.57;;
10230;SDS011;62604;49.432;8.680;2024-02-21T16:00:23;3.90;;;2.70;;
10230;SDS011;62604;49.432;8.680;2024-02-21T16:02:50;5.13;;;2.57;;
10230;SDS011;62604;49.432;8.680;2024-02-21T16:05:17;5.27;;;2.07;;
10230;SDS011;62604;49.432;8.680;2024-02-21T16:07:44;4.27;;;2.10;;
10230;SDS011;62604;49.432;8.680;2024-02-21T16:10:11;5.60;;;3.50;;
10230;SDS011;62604;49.432;8.680;2024-02-21T16:12:39;5.73;;;2.50;;
10230;SDS011;62604;49.432;8.680;2024-02-21T16:15:08;4.40;;;2.73;;
10230;SDS011;62604;49.432;8.680;2024-02-21T16:17:37;2.93;;;2.50;;
10230;SDS011;62604;49.432;8.680;2024-02-21T16:20:06;3.67;;;2.60;;
10230;SDS011;62604;49.432;8.680;2024-02-21T16:22:35;2.27;;;2.07;;
10230;SDS011;62604;49.432;8.680;2024-02-21T16:25:03;2.77;;;2.33;;
10230;SDS011;62604;49.432;8.680;2024-02-21T16:27:31;3.50;;;2.60;;
10230;SDS011;62604;49.432;8.680;2024-02-21T16:29:58;2.97;;;2.30;;
10230;SDS011;62604;49.432;8.680;2024-02-21T16:32:26;4.03;;;3.13;;
10230;SDS011;62604;49.432;8.680;2024-02-21T16:34:53;5.30;;;2.93;;
10230;SDS011;62604;49.432;8.680;2024-02-21T16:37:21;5.73;;;3.80;;
10230;SDS011;62604;49.432;8.680;2024-02-21T16:39:48;4.27;;;3.23;;
10230;SDS011;62604;49.432;8.680;2024-02-21T16:42:15;3.50;;;3.00;;
10230;SDS011;62604;49.432;8.680;2024-02-21T16:44:42;5.20;;;2.37;;
10230;SDS011;62604;49.432;8.680;2024-02-21T16:47:10;3.47;;;2.70;;
10230;SDS011;62604;49.432;8.680;2024-02-21T16:49:41;4.00;;;2.37;;
10230;SDS011;62604;49.432;8.680;2024-02-21T16:52:08;5.20;;;2.90;;
10230;SDS011;62604;49.432;8.680;2024-02-21T16:54:35;6.23;;;2.90;;
10230;SDS011;62604;49.432;8.680;2024-02-21T16:57:02;4.90;;;3.00;;
10230;SDS011;62604;49.432;8.680;2024-02-21T16:59:29;4.37;;;2.80;;
10230;SDS011;62604;49.432;8.680;2024-02-21T17:01:56;2.87;;;2.50;;
10230;SDS011;62604;49.432;8.680;2024-02-21T17:04:26;8.73;;;3.33;;
10230;SDS011;62604;49.432;8.680;2024-02-21T17:06:55;5.40;;;2.60;;
10230;SDS011;62604;49.432;8.680;2024-02-21T17:09:22;5.27;;;2.93;;
10230;SDS011;62604;49.432;8.680;2024-02-21T17:11:49;5.50;;;2.77;;
10230;SDS011;62604;49.432;8.680;2024-02-21T17:14:18;4.90;;;3.20;;
10230;SDS011;62604;49.432;8.680;2024-02-21T17:16:47;8.70;;;3.07;;
10230;SDS011;62604;49.432;8.680;2024-02-21T17:19:14;4.17;;;3.03;;
10230;SDS011;62604;49.432;8.680;2024-02-21T17:21:42;3.90;;;2.80;;
10230;SDS011;62604;49.432;8.680;2024-02-21T17:24:10;4.83;;;2.80;;
10230;SDS011;62604;49.432;8.680;2024-02-21T17:26:37;5.23;;;2.97;;
10230;SDS011;62604;49.432;8.680;2024-02-21T17:29:04;4.20;;;2.70;;
10230;SDS011;62604;49.432;8.680;2024-02-21T17:31:31;4.20;;;3.10;;
10230;SDS011;62604;49.432;8.680;2024-02-21T17:33:58;3.50;;;3.20;;
10230;SDS011;62604;49.432;8.680;2024-02-21T17:36:26;5.50;;;3.00;;
10230;SDS011;62604;49.432;8.680;2024-02-21T17:38:53;4.80;;;3.70;;
10230;SDS011;62604;49.432;8.680;2024-02-21T17:41:21;7.03;;;3.20;;
10230;SDS011;62604;49.432;8.680;2024-02-21T17:43:48;9.43;;;3.03;;
10230;SDS011;62604;49.432;8.680;2024-02-21T17:46:17;4.33;;;2.70;;
10230;SDS011;62604;49.432;8.680;2024-02-21T17:48:44;4.07;;;2.53;;
10230;SDS011;62604;49.432;8.680;2024-02-21T17:51:11;3.03;;;2.57;;
10230;SDS011;62604;49.432;8.680;2024-02-21T17:53:38;3.40;;;2.40;;
10230;SDS011;62604;49.432;8.680;2024-02-21T17:56:06;2.70;;;2.50;;
10230;SDS011;62604;49.432;8.680;2024-02-21T17:58:35;5.73;;;2.87;;
10230;SDS011;62604;49.432;8.680;2024-02-21T18:01:02;3.87;;;2.80;;
10230;SDS011;62604;49.432;8.680;2024-02-21T18:03:29;2.57;;;2.37;;
10230;SDS011;62604;49.432;8.680;2024-02-21T18:05:57;10.03;;;3.60;;
10230;SDS011;62604;49.432;8.680;2024-02-21T18:08:25;5.57;;;3.10;;
10230;SDS011;62604;49.432;8.680;2024-02-21T18:10:53;4.77;;;3.70;;
10230;SDS011;62604;49.432;8.680;2024-02-21T18:13:20;7.43;;;3.93;;
10230;SDS011;62604;49.432;8.680;2024-02-21T18:15:49;4.10;;;3.37;;
10230;SDS011;62604;49.432;8.680;2024-02-21T18:18:16;6.83;;;3.50;;
10230;SDS011;62604;49.432;8.680;2024-02-21T18:20:44;4.37;;;2.83;;
10230;SDS011;62604;49.432;8.680;2024-02-21T18:23:11;5.87;;;3.20;;
10230;SDS011;62604;49.432;8.680;2024-02-21T18:25:38;3.90;;;2.93;;
10230;SDS011;62604;49.432;8.680;2024-02-21T18:28:08;2.90;;;2.43;;
10230;SDS011;62604;49.432;8.680;2024-02-21T18:30:35;5.40;;;3.93;;
10230;SDS011;62604;49.432;8.680;2024-02-21T18:33:04;11.80;;;4.27;;
10230;SDS011;62604;49.432;8.680;2024-02-21T18:35:31;5.10;;;3.77;;
10230;SDS011;62604;49.432;8.680;2024-02-21T18:37:58;7.43;;;4.30;;
10230;SDS011;62604;49.432;8.680;2024-02-21T18:40:27;4.57;;;3.57;;
10230;SDS011;62604;49.432;8.680;2024-02-21T18:42:54;4.10;;;2.70;;
10230;SDS011;62604;49.432;8.680;2024-02-21T18:45:22;7.13;;;3.80;;
10230;SDS011;62604;49.432;8.680;2024-02-21T18:47:50;5.30;;;3.40;;
10230;SDS011;62604;49.432;8.680;2024-02-21T18:50:19;3.90;;;2.53;;
10230;SDS011;62604;49.432;8.680;2024-02-21T18:52:46;8.37;;;3.53;;
10230;SDS011;62604;49.432;8.680;2024-02-21T18:55:17;3.27;;;2.73;;
10230;SDS011;62604;49.432;8.680;2024-02-21T18:57:44;5.97;;;3.47;;
10230;SDS011;62604;49.432;8.680;2024-02-21T19:00:12;3.10;;;2.70;;
10230;SDS011;62604;49.432;8.680;2024-02-21T19:02:44;4.93;;;3.10;;
10230;SDS011;62604;49.432;8.680;2024-02-21T19:05:12;4.67;;;2.17;;
10230;SDS011;62604;49.432;8.680;2024-02-21T19:07:41;3.87;;;3.07;;
10230;SDS011;62604;49.432;8.680;2024-02-21T19:10:08;5.67;;;2.70;;
10230;SDS011;62604;49.432;8.680;2024-02-21T19:12:37;3.17;;;2.83;;
10230;SDS011;62604;49.432;8.680;2024-02-21T19:15:04;5.40;;;3.23;;
10230;SDS011;62604;49.432;8.680;2024-02-21T19:17:33;5.37;;;2.90;;
10230;SDS011;62604;49.432;8.680;2024-02-21T19:20:01;3.40;;;2.73;;
10230;SDS011;62604;49.432;8.680;2024-02-21T19:22:28;2.60;;;2.40;;
10230;SDS011;62604;49.432;8.680;2024-02-21T19:24:59;3.00;;;2.70;;
10230;SDS011;62604;49.432;8.680;2024-02-21T19:27:32;2.60;;;2.40;;
10230;SDS011;62604;49.432;8.680;2024-02-21T19:29:59;5.07;;;2.43;;
10230;SDS011;62604;49.432;8.680;2024-02-21T19:32:26;5.70;;;2.60;;
10230;SDS011;62604;49.432;8.680;2024-02-21T19:34:54;3.03;;;2.73;;
10230;SDS011;62604;49.432;8.680;2024-02-21T19:37:21;4.53;;;2.80;;
10230;SDS011;62604;49.432;8.680;2024-02-21T19:39:48;3.23;;;2.60;;
10230;SDS011;62604;49.432;8.680;2024-02-21T19:42:17;2.80;;;2.60;;
10230;SDS011;62604;49.432;8.680;2024-02-21T19:44:44;6.30;;;3.00;;
10230;SDS011;62604;49.432;8.680;2024-02-21T19:47:12;3.50;;;2.57;;
10230;SDS011;62604;49.432;8.680;2024-02-21T19:49:39;6.87;;;2.70;;
10230;SDS011;62604;49.432;8.680;2024-02-21T19:52:07;4.50;;;2.87;;
10230;SDS011;62604;49.432;8.680;2024-02-21T19:54:34;5.00;;;2.63;;
10230;SDS011;62604;49.432;8.680;2024-02-21T19:57:01;5.33;;;2.63;;
10230;SDS011;62604;49.432;8.680;2024-02-21T19:59:30;6.37;;;3.00;;
10230;SDS011;62604;49.432;8.680;2024-02-21T20:01:58;3.20;;;2.63;;
10230;SDS011;62604;49.432;8.680;2024-02-21T20:04:25;2.73;;;2.30;;
10230;SDS011;62604;49.432;8.680;2024-02-21T20:06:53;3.20;;;2.43;;
10230;SDS011;62604;49.432;8.680;2024-02-21T20:09:20;3.37;;;2.70;;
10230;SDS011;62604;49.432;8.680;2024-02-21T20:11:47;4.43;;;2.57;;
10230;SDS011;62604;49.432;8.680;2024-02-21T20:14:15;5.43;;;2.70;;
10230;SDS011;62604;49.432;8.680;2024-02-21T20:16:44;4.93;;;2.63;;
10230;SDS011;62604;49.432;8.680;2024-02-21T20:19:13;6.07;;;2.80;;
10230;SDS011;62604;49.432;8.680;2024-02-21T20:21:41;2.60;;;2.27;;
10230;SDS011;62604;49.432;8.680;2024-02-21T20:24:09;2.73;;;2.23;;
10230;SDS011;62604;49.432;8.680;2024-02-21T20:26:37;4.83;;;2.87;;
10230;SDS011;62604;49.432;8.680;2024-02-21T20:29:09;4.77;;;2.60;;
10230;SDS011;62604;49.432;8.680;2024-02-21T20:31:40;3.03;;;2.40;;
10230;SDS011;62604;49.432;8.680;2024-02-21T20:34:12;7.10;;;2.40;;
10230;SDS011;62604;49.432;8.680;2024-02-21T20:36:41;2.53;;;2.20;;
10230;SDS011;62604;49.432;8.680;2024-02-21T20:39:08;2.90;;;2.43;;
10230;SDS011;62604;49.432;8.680;2024-02-21T20:41:36;3.00;;;2.33;;
10230;SDS011;62604;49.432;8.680;2024-02-21T20:44:06;4.43;;;2.60;;
10230;SDS011;62604;49.432;8.680;2024-02-21T20:46:35;2.70;;;2.20;;
10230;SDS011;62604;49.432;8.680;2024-02-21T20:49:02;3.63;;;2.03;;
10230;SDS011;62604;49.432;8.680;2024-02-21T20:51:31;2.90;;;2.07;;
10230;SDS011;62604;49.432;8.680;2024-02-21T20:54:01;2.90;;;2.60;;
10230;SDS011;62604;49.432;8.680;2024-02-21T20:56:28;8.00;;;2.70;;
10230;SDS011;62604;49.432;8.680;2024-02-21T20:58:55;3.30;;;2.30;;
10230;SDS011;62604;49.432;8.680;2024-02-21T21:01:22;2.20;;;2.00;;
10230;SDS011;62604;49.432;8.680;2024-02-21T21:03:50;2.63;;;2.30;;
10230;SDS011;62604;49.432;8.680;2024-02-21T21:06:17;2.47;;;2.00;;
10230;SDS011;62604;49.432;8.680;2024-02-21T21:08:46;2.30;;;2.10;;
10230;SDS011;62604;49.432;8.680;2024-02-21T21:11:13;5.17;;;2.00;;
10230;SDS011;62604;49.432;8.680;2024-02-21T21:13:41;3.03;;;2.20;;
10230;SDS011;62604;49.432;8.680;2024-02-21T21:16:08;2.50;;;2.30;;
10230;SDS011;62604;49.432;8.680;2024-02-21T21:18:36;2.23;;;2.10;;
10230;SDS011;62604;49.432;8.680;2024-02-21T21:21:03;2.33;;;2.13;;